Hlavní strana
METAR-TAF:

METAR-TAF

Letiště :

Tartu, Estonsko

zeměpisná šířka: 58-18N, zeměpisná délka: 026-44E, výška: 59 m

Aktuální stav počasí

Zpráva byla vytvořena před 23 minutami, v 04:50 UTC
Západní vítr 8 kt
Teplota 12°C
Vlhkost vzduchu 67%
Tlak 1019 hPa
Viditelnost 10 km a více

METAR: EETU 220450Z AUTO 28008KT 9999 NCD 12/06 Q1019

Čas: 08:13 (05:13 UTC)

Předpověď počasí

Zpráva byla vytvořena před 9 hodinami a 13 minutami, v 20:00 UTC
Předpověď platná od 21 v 21 UTC do 22 v 03 UTC
Západoseverozápadní vítr 12 kt
Viditelnost 10 km a více
Žádná oblačnost pod 1500 m, nevyskytují se cumulonimby.

TAF: EETU 212000Z 2121/2203 29012KT CAVOK

Stav a předpovědi počasí z více než 4 000 letišť (zprávy METAR a TAF).

Červené a žluté tečky na mapě představují dostupné meteorologické stanice.

Když kurzor umístíte na tečku, zobrazí se název stanice.

Pak kliknutím zobrazíte stav a předpověď počasí.

Chcete-li změnit mapu, kliknutím na zelené tlačítko se znaménkem +mapu přiblížíte, kliknutím na zelené tlačítko se znaménkem – mapu oddálíte a kliknutím na zelené šipky přejdete na sousední mapy.


METAR-TAF: